Time;durP1;ratioP1;P1;durP2;ratioP2;P2;SDS_P1;SDS_P2;PMS_P1;PMS_P2;Temp;Humidity;BMP_temperature;BMP_pressure;BME280_temperature;BME280_humidity;BME280_pressure;Samples;Min_cycle;Max_cycle;Signal;HPM_P1;HPM_P2
2022/05/26 00:01:42;;;;;;;0.47;0.32;;;17.60;69.30;;;;;;5027725;28;20033;-82
2022/05/26 00:04:07;;;;;;;1.98;0.40;;;17.70;69.60;;;;;;5022413;28;20029;-82
2022/05/26 00:06:33;;;;;;;3.33;0.60;;;17.70;69.60;;;;;;5027679;28;20082;-83
2022/05/26 00:08:59;;;;;;;1.05;0.93;;;17.70;70.20;;;;;;5026167;28;20026;-84
2022/05/26 00:11:33;;;;;;;0.65;0.47;;;17.60;70.10;;;;;;5024550;28;20033;-86
2022/05/26 00:14:07;;;;;;;3.08;0.63;;;17.70;70.10;;;;;;5028898;28;20060;-82
2022/05/26 00:16:41;;;;;;;1.23;0.40;;;17.70;70.20;;;;;;5031258;28;20060;-83
2022/05/26 00:19:06;;;;;;;1.10;0.47;;;17.60;70.60;;;;;;5022870;28;20532;-83
2022/05/26 00:21:32;;;;;;;4.15;1.27;;;17.70;70.50;;;;;;5025779;28;20038;-83
2022/05/26 00:23:58;;;;;;;1.65;0.70;;;17.70;71.00;;;;;;5023971;28;20055;-83
2022/05/26 00:26:24;;;;;;;1.17;0.70;;;17.60;71.00;;;;;;5029291;28;20056;-83
2022/05/26 00:28:50;;;;;;;0.98;0.70;;;17.60;71.00;;;;;;5030937;28;20100;-83
2022/05/26 00:31:15;;;;;;;1.27;0.50;;;17.70;71.10;;;;;;5031630;28;20451;-82
2022/05/26 00:33:41;;;;;;;1.35;0.40;;;17.70;70.80;;;;;;5028445;28;20430;-80
2022/05/26 00:36:09;;;;;;;0.98;0.40;;;17.70;70.20;;;;;;5027423;28;20025;-83
2022/05/26 00:38:35;;;;;;;1.13;0.40;;;17.60;70.20;;;;;;5032133;28;20112;-82
2022/05/26 00:41:03;;;;;;;0.98;0.30;;;17.60;70.20;;;;;;5028997;28;20182;-81
2022/05/26 00:43:29;;;;;;;0.98;0.40;;;17.60;70.00;;;;;;5027673;28;20030;-81
2022/05/26 00:46:06;;;;;;;1.02;0.40;;;17.60;70.10;;;;;;5025126;28;20480;-81
2022/05/26 00:48:42;;;;;;;2.20;0.70;;;17.60;70.00;;;;;;5031640;28;20025;-82
2022/05/26 00:51:10;;;;;;;4.55;0.40;;;17.60;70.40;;;;;;5028898;28;20110;-81
2022/05/26 00:53:53;;;;;;;1.65;0.50;;;17.50;70.50;;;;;;5030766;28;20029;-81
2022/05/26 00:56:33;;;;;;;1.50;0.77;;;17.60;70.50;;;;;;5031143;28;20401;-83
2022/05/26 00:59:06;;;;;;;0.60;0.45;;;17.50;70.40;;;;;;5033308;28;20034;-81
2022/05/26 01:01:32;;;;;;;1.63;0.50;;;17.50;70.50;;;;;;5031528;28;20032;-83
2022/05/26 01:04:01;;;;;;;0.70;0.40;;;17.50;70.10;;;;;;5030046;28;20124;-84
2022/05/26 01:06:34;;;;;;;1.25;0.40;;;17.50;70.40;;;;;;5028512;28;20060;-84
2022/05/26 01:09:03;;;;;;;1.05;0.57;;;17.50;70.60;;;;;;5024243;28;20033;-82
2022/05/26 01:11:31;;;;;;;1.02;0.50;;;17.40;69.90;;;;;;5027605;28;20029;-81
2022/05/26 01:14:21;;;;;;;1.80;0.30;;;17.40;70.00;;;;;;5029223;28;20025;-82
2022/05/26 01:17:12;;;;;;;1.25;0.50;;;17.40;70.00;;;;;;5033241;28;20033;-82
2022/05/26 01:20:10;;;;;;;1.60;0.40;;;17.40;70.60;;;;;;5025744;28;20473;-85
2022/05/26 01:23:04;;;;;;;4.18;0.55;;;17.40;70.40;;;;;;5026276;28;20045;-82
2022/05/26 01:25:51;;;;;;;1.60;0.40;;;17.40;70.00;;;;;;5029884;28;20022;-83
2022/05/26 01:28:26;;;;;;;0.63;0.38;;;17.30;70.00;;;;;;5036972;28;20352;-82
2022/05/26 01:31:00;;;;;;;0.45;0.30;;;17.40;70.50;;;;;;5040710;28;20029;-83
2022/05/26 01:33:38;;;;;;;2.22;0.30;;;17.40;69.90;;;;;;5034182;28;20029;-83
2022/05/26 01:36:41;;;;;;;0.55;0.50;;;17.40;69.80;;;;;;5046442;28;20025;-85
2022/05/26 01:39:38;;;;;;;2.38;0.50;;;17.40;69.70;;;;;;5026048;28;20033;-83
2022/05/26 01:42:38;;;;;;;2.50;0.40;;;17.40;70.10;;;;;;5028304;28;20045;-83
2022/05/26 01:45:42;;;;;;;0.98;0.45;;;17.50;69.90;;;;;;5031069;28;20033;-83
2022/05/26 01:48:23;;;;;;;1.05;0.45;;;17.50;69.30;;;;;;5022723;28;20037;-83
2022/05/26 01:50:52;;;;;;;1.13;0.50;;;17.40;69.70;;;;;;5027116;28;20075;-84
2022/05/26 01:53:22;;;;;;;0.90;0.43;;;17.40;70.20;;;;;;5028174;28;20041;-83
2022/05/26 01:56:03;;;;;;;2.25;0.50;;;17.40;70.20;;;;;;5030600;28;20040;-85
2022/05/26 01:58:43;;;;;;;1.38;0.47;;;17.40;69.90;;;;;;5029139;28;20041;-83
2022/05/26 02:01:17;;;;;;;0.50;0.35;;;17.40;69.80;;;;;;5029094;28;20029;-82
2022/05/26 02:03:46;;;;;;;0.32;0.30;;;17.40;70.00;;;;;;5030468;28;20022;-86
2022/05/26 02:06:22;;;;;;;1.98;0.60;;;17.40;69.80;;;;;;5031131;28;20039;-83
2022/05/26 02:09:01;;;;;;;0.55;0.40;;;17.50;70.20;;;;;;5023982;28;20029;-83
2022/05/26 02:11:28;;;;;;;1.73;0.40;;;17.50;69.80;;;;;;5030308;28;20505;-84
2022/05/26 02:14:17;;;;;;;1.20;0.50;;;17.50;69.70;;;;;;5029250;28;20390;-83
2022/05/26 02:16:48;;;;;;;0.70;0.30;;;17.50;69.70;;;;;;5025502;28;20034;-84
2022/05/26 02:19:21;;;;;;;0.98;0.40;;;17.50;69.60;;;;;;5026386;28;20057;-82
2022/05/26 02:21:55;;;;;;;0.70;0.40;;;17.50;69.60;;;;;;5023787;28;20041;-83
2022/05/26 02:24:53;;;;;;;0.50;0.40;;;17.50;69.40;;;;;;5045405;28;20033;-83
2022/05/26 02:27:19;;;;;;;0.57;0.32;;;17.50;69.30;;;;;;5016112;28;20044;-82
2022/05/26 02:29:51;;;;;;;2.47;1.13;;;17.50;69.20;;;;;;5027639;28;20095;-83
2022/05/26 02:32:39;;;;;;;1.92;0.45;;;17.50;69.30;;;;;;5031428;28;20033;-83
2022/05/26 02:35:10;;;;;;;1.38;0.40;;;17.50;69.60;;;;;;5029285;28;20540;-83
2022/05/26 02:37:37;;;;;;;0.90;0.30;;;17.50;69.50;;;;;;5028241;28;20043;-83
2022/05/26 02:40:05;;;;;;;1.80;0.45;;;17.50;69.80;;;;;;5028857;28;20025;-84
2022/05/26 02:42:30;;;;;;;1.10;0.55;;;17.50;69.70;;;;;;5026726;28;20116;-82
2022/05/26 02:44:57;;;;;;;5.88;0.40;;;17.60;69.30;;;;;;5029025;28;20105;-83
2022/05/26 02:47:33;;;;;;;0.73;0.40;;;17.60;69.50;;;;;;5020519;28;20037;-83
2022/05/26 02:50:17;;;;;;;0.95;0.50;;;17.60;70.00;;;;;;5028558;28;20112;-84
2022/05/26 02:53:00;;;;;;;2.28;0.40;;;17.60;69.90;;;;;;5020994;28;20037;-82
2022/05/26 02:55:28;;;;;;;0.90;0.50;;;17.50;69.90;;;;;;5026049;28;20156;-83
2022/05/26 02:58:05;;;;;;;0.65;0.30;;;17.50;70.30;;;;;;5027374;28;20057;-85
2022/05/26 03:00:59;;;;;;;0.38;0.30;;;17.40;70.10;;;;;;5027833;28;20045;-82
2022/05/26 03:03:33;;;;;;;0.75;0.40;;;17.50;70.40;;;;;;5041171;28;20025;-83
2022/05/26 03:06:14;;;;;;;0.60;0.40;;;17.40;70.40;;;;;;5021906;28;20030;-82
2022/05/26 03:08:42;;;;;;;2.20;0.88;;;17.40;70.70;;;;;;5042679;28;20128;-86
2022/05/26 03:11:10;;;;;;;1.48;0.40;;;17.40;70.80;;;;;;5020514;28;20030;-82
2022/05/26 03:13:37;;;;;;;1.52;0.50;;;17.40;70.40;;;;;;5018370;28;20501;-83
2022/05/26 03:16:04;;;;;;;0.80;0.40;;;17.30;71.00;;;;;;5023582;28;20034;-84
2022/05/26 03:18:30;;;;;;;1.63;0.40;;;17.30;71.20;;;;;;5023269;28;20062;-84
2022/05/26 03:21:01;;;;;;;0.32;0.30;;;17.30;70.90;;;;;;5037475;28;20147;-84
2022/05/26 03:23:26;;;;;;;2.40;0.50;;;17.30;71.10;;;;;;5036289;28;20120;-83
2022/05/26 03:25:55;;;;;;;0.60;0.40;;;17.30;70.90;;;;;;5021931;28;20109;-83
2022/05/26 03:28:20;;;;;;;1.55;0.40;;;17.30;71.70;;;;;;5029156;28;20038;-84
2022/05/26 03:30:46;;;;;;;0.77;0.47;;;17.30;70.90;;;;;;5028596;28;20402;-82
2022/05/26 03:33:11;;;;;;;2.10;0.40;;;17.30;70.80;;;;;;5025305;28;20152;-83
2022/05/26 03:41:05;;;;;;;0.70;0.47;;;17.40;71.20;;;;;;5020830;28;20461;-81
2022/05/26 03:43:45;;;;;;;1.63;0.40;;;17.40;71.20;;;;;;5020471;28;20057;-82
2022/05/26 03:46:11;;;;;;;0.52;0.20;;;17.40;71.20;;;;;;5023216;28;20064;-81
2022/05/26 03:48:38;;;;;;;2.65;0.50;;;17.40;71.70;;;;;;5023325;28;20091;-84
2022/05/26 03:51:05;;;;;;;0.93;0.38;;;17.30;72.40;;;;;;5023713;28;20033;-81
2022/05/26 03:53:30;;;;;;;1.48;0.45;;;17.30;71.90;;;;;;5026288;28;20028;-83
2022/05/26 03:55:56;;;;;;;0.60;0.32;;;17.30;72.20;;;;;;5023857;28;20025;-82
2022/05/26 03:58:21;;;;;;;0.50;0.22;;;17.30;72.40;;;;;;5029289;28;20037;-82
2022/05/26 04:00:47;;;;;;;1.20;0.40;;;17.40;72.20;;;;;;5029146;28;20045;-82
2022/05/26 04:03:13;;;;;;;0.98;0.40;;;17.30;72.50;;;;;;5028779;28;20854;-82
2022/05/26 04:05:39;;;;;;;1.25;0.32;;;17.30;72.60;;;;;;5027613;28;20083;-82
2022/05/26 04:08:04;;;;;;;2.83;0.47;;;17.30;72.40;;;;;;5029322;28;20065;-83
2022/05/26 04:10:30;;;;;;;0.45;0.30;;;17.30;72.40;;;;;;5029710;28;20045;-81
2022/05/26 04:12:55;;;;;;;1.05;0.30;;;17.30;72.60;;;;;;5027410;28;20037;-82
2022/05/26 04:15:22;;;;;;;1.35;0.52;;;17.30;72.90;;;;;;5024802;28;20086;-81
2022/05/26 04:17:47;;;;;;;3.25;0.50;;;17.30;73.60;;;;;;5029165;28;20025;-84
2022/05/26 04:20:16;;;;;;;1.70;0.38;;;17.30;72.50;;;;;;5024160;28;20045;-84
2022/05/26 04:22:42;;;;;;;1.27;0.50;;;17.40;73.20;;;;;;5020961;28;20026;-82
2022/05/26 04:25:09;;;;;;;0.50;0.22;;;17.40;72.80;;;;;;5028168;28;20113;-82
2022/05/26 04:27:35;;;;;;;1.70;0.40;;;17.40;72.70;;;;;;5022111;28;20697;-84
2022/05/26 04:30:03;;;;;;;0.63;0.30;;;17.40;72.70;;;;;;5030279;28;20100;-81
2022/05/26 04:32:29;;;;;;;3.97;0.65;;;17.40;73.40;;;;;;5040154;28;20080;-83
2022/05/26 04:34:54;;;;;;;0.40;0.30;;;17.30;73.10;;;;;;5023461;28;20037;-84
2022/05/26 04:37:22;;;;;;;1.90;0.63;;;17.30;73.20;;;;;;5023564;28;20030;-82
2022/05/26 04:39:48;;;;;;;0.60;0.30;;;17.40;72.90;;;;;;5018990;28;20034;-81
2022/05/26 04:42:14;;;;;;;0.60;0.40;;;17.50;73.20;;;;;;5018165;28;20041;-82
2022/05/26 04:44:43;;;;;;;0.90;0.30;;;17.50;73.40;;;;;;5027319;28;20038;-81
2022/05/26 04:47:10;;;;;;;0.85;0.50;;;17.60;72.90;;;;;;5024910;28;20029;-83
2022/05/26 04:49:37;;;;;;;1.80;0.47;;;17.60;72.80;;;;;;5024142;28;20025;-82
2022/05/26 04:52:07;;;;;;;1.52;0.50;;;17.60;72.70;;;;;;5031623;28;20778;-81
2022/05/26 04:54:33;;;;;;;0.30;0.20;;;17.60;72.90;;;;;;5035169;28;20033;-83
2022/05/26 04:56:59;;;;;;;0.85;0.30;;;17.60;73.30;;;;;;5024435;28;20045;-82
2022/05/26 04:59:25;;;;;;;0.50;0.30;;;17.70;73.10;;;;;;5028919;28;20896;-83
2022/05/26 05:01:51;;;;;;;1.48;0.38;;;17.70;72.60;;;;;;5028648;28;20030;-84
2022/05/26 05:04:17;;;;;;;1.33;0.40;;;17.70;73.10;;;;;;5025118;28;20527;-84
2022/05/26 05:06:43;;;;;;;0.73;0.30;;;17.70;72.80;;;;;;5021423;28;20029;-83
2022/05/26 05:09:10;;;;;;;1.13;0.40;;;17.70;73.10;;;;;;5020209;28;20042;-83
2022/05/26 05:11:36;;;;;;;1.42;0.52;;;17.70;73.80;;;;;;5021651;28;20145;-84
2022/05/26 05:14:04;;;;;;;1.98;0.50;;;17.70;73.90;;;;;;5020961;28;20231;-83
2022/05/26 05:16:34;;;;;;;0.75;0.38;;;17.70;73.20;;;;;;5021878;28;20030;-85
2022/05/26 05:19:00;;;;;;;2.70;0.40;;;17.70;74.20;;;;;;5022125;28;20891;-82
2022/05/26 05:21:33;;;;;;;3.30;0.75;;;17.70;74.00;;;;;;5021299;28;20049;-81
2022/05/26 05:24:04;;;;;;;1.10;0.40;;;17.60;73.90;;;;;;5013969;28;20057;-82
2022/05/26 05:26:34;;;;;;;0.85;0.50;;;17.50;74.80;;;;;;5021573;28;20065;-82
2022/05/26 05:29:05;;;;;;;0.63;0.43;;;17.50;75.10;;;;;;5022875;28;20373;-84
2022/05/26 05:31:59;;;;;;;1.33;0.43;;;17.50;75.70;;;;;;5027052;28;20115;-83
2022/05/26 05:34:39;;;;;;;0.40;0.40;;;17.50;75.50;;;;;;5026098;28;20671;-81
2022/05/26 05:37:05;;;;;;;0.77;0.50;;;17.50;75.40;;;;;;5023384;28;20118;-84
2022/05/26 05:39:31;;;;;;;1.55;0.50;;;17.50;75.80;;;;;;5026440;28;20065;-82
2022/05/26 05:41:59;;;;;;;1.27;0.50;;;17.60;75.70;;;;;;5022301;28;20065;-85
2022/05/26 05:44:26;;;;;;;3.40;0.50;;;17.70;75.40;;;;;;5024243;28;20037;-83
2022/05/26 05:46:54;;;;;;;1.95;0.30;;;17.80;74.90;;;;;;5021966;28;20032;-84
2022/05/26 05:49:22;;;;;;;1.95;0.40;;;17.80;75.20;;;;;;5028792;28;20087;-83
2022/05/26 05:51:47;;;;;;;2.95;0.60;;;17.90;75.10;;;;;;5027396;28;20026;-82
2022/05/26 05:54:13;;;;;;;0.85;0.30;;;17.80;75.20;;;;;;5030159;28;20030;-82
2022/05/26 05:56:39;;;;;;;2.33;0.68;;;17.90;75.40;;;;;;5025595;28;20389;-81
2022/05/26 05:59:05;;;;;;;1.08;0.38;;;18.00;74.80;;;;;;5019144;28;20397;-81
2022/05/26 06:01:31;;;;;;;0.68;0.35;;;18.10;74.90;;;;;;5028564;28;20037;-84
2022/05/26 06:03:56;;;;;;;0.82;0.22;;;18.10;75.50;;;;;;5029682;28;20096;-80
2022/05/26 06:06:22;;;;;;;2.58;0.40;;;18.10;74.90;;;;;;5024312;28;20029;-82
2022/05/26 06:08:48;;;;;;;0.30;0.20;;;18.10;75.60;;;;;;5026955;28;20489;-81
2022/05/26 06:11:13;;;;;;;2.20;0.30;;;18.20;75.80;;;;;;5026960;28;20068;-81
2022/05/26 06:13:39;;;;;;;0.30;0.30;;;18.20;75.80;;;;;;5037784;28;20041;-81
2022/05/26 06:16:08;;;;;;;2.45;0.40;;;18.30;75.20;;;;;;5024921;28;20029;-82
2022/05/26 06:18:34;;;;;;;3.90;0.45;;;18.30;76.00;;;;;;5024329;28;20764;-82
2022/05/26 06:21:11;;;;;;;1.83;0.60;;;18.30;76.00;;;;;;5025546;28;20049;-81
2022/05/26 06:23:37;;;;;;;0.60;0.30;;;18.30;75.80;;;;;;5025237;28;20087;-82
2022/05/26 06:26:02;;;;;;;0.90;0.40;;;18.30;75.60;;;;;;5025830;28;20041;-81
2022/05/26 06:31:12;;;;;;;2.92;0.63;;;18.40;76.70;;;;;;5027248;28;20406;-80
2022/05/26 06:39:06;;;;;;;5.28;0.50;;;18.50;76.40;;;;;;5033029;28;20084;-81
2022/05/26 06:44:17;;;;;;;2.75;0.60;;;18.50;76.60;;;;;;5038113;28;20530;-80
2022/05/26 06:46:42;;;;;;;13.15;0.50;;;18.60;77.00;;;;;;5037127;28;20121;-81
2022/05/26 06:49:08;;;;;;;1.00;0.38;;;18.60;77.20;;;;;;5036294;28;20064;-81
2022/05/26 06:51:39;;;;;;;3.13;0.32;;;18.70;77.30;;;;;;5039058;28;20049;-84
2022/05/26 06:54:07;;;;;;;1.05;0.95;;;18.90;77.00;;;;;;5012800;28;20413;-82
2022/05/26 06:56:33;;;;;;;3.92;0.70;;;19.00;76.10;;;;;;5031845;28;20118;-84
2022/05/26 06:58:58;;;;;;;2.80;0.50;;;19.10;76.70;;;;;;5036312;28;20496;-81
2022/05/26 07:01:24;;;;;;;1.05;0.43;;;19.10;75.30;;;;;;5030694;28;20719;-80
2022/05/26 07:03:50;;;;;;;0.70;0.45;;;19.10;76.80;;;;;;5034717;28;20029;-81
2022/05/26 07:06:22;;;;;;;0.80;0.40;;;19.20;76.10;;;;;;5030979;28;20474;-81
2022/05/26 07:08:48;;;;;;;2.22;0.68;;;19.20;76.00;;;;;;5031166;28;20033;-81
2022/05/26 07:11:14;;;;;;;0.57;0.40;;;19.20;76.30;;;;;;5039304;28;20045;-82
2022/05/26 07:13:40;;;;;;;2.53;0.70;;;19.30;75.20;;;;;;5038176;28;20543;-80
2022/05/26 07:16:07;;;;;;;1.08;0.52;;;19.30;75.20;;;;;;5030093;28;20219;-82
2022/05/26 07:18:33;;;;;;;0.77;0.55;;;19.30;75.60;;;;;;5043767;28;20025;-81
2022/05/26 07:21:01;;;;;;;0.65;0.30;;;19.30;75.40;;;;;;5029975;28;20037;-82
2022/05/26 07:23:27;;;;;;;3.00;0.80;;;19.30;76.40;;;;;;5033516;28;20041;-81
2022/05/26 07:25:52;;;;;;;4.88;0.65;;;19.40;75.10;;;;;;5034921;28;20112;-82
2022/05/26 07:28:17;;;;;;;0.60;0.40;;;19.40;75.30;;;;;;5044556;28;20448;-81
2022/05/26 07:30:43;;;;;;;0.95;0.40;;;19.30;75.70;;;;;;5044319;28;20091;-81
2022/05/26 07:33:09;;;;;;;0.77;0.38;;;19.40;75.90;;;;;;5030865;28;20461;-81
2022/05/26 07:35:35;;;;;;;0.47;0.30;;;19.40;75.50;;;;;;5029412;28;20033;-81
2022/05/26 07:43:34;;;;;;;2.25;0.93;;;19.30;76.40;;;;;;5038291;28;20036;-82
2022/05/26 07:46:00;;;;;;;0.77;0.50;;;19.40;76.00;;;;;;5036488;28;20034;-79
2022/05/26 07:48:25;;;;;;;0.68;0.50;;;19.60;75.70;;;;;;5034048;28;20095;-81
2022/05/26 07:50:51;;;;;;;4.47;0.38;;;19.70;75.60;;;;;;5032390;28;20033;-81
2022/05/26 07:53:16;;;;;;;3.05;0.40;;;19.80;75.20;;;;;;5031824;28;20574;-82
2022/05/26 07:55:42;;;;;;;1.27;0.45;;;20.00;75.20;;;;;;5049457;28;20032;-82
2022/05/26 07:58:12;;;;;;;3.85;0.30;;;20.20;74.80;;;;;;5050594;28;20039;-82
2022/05/26 08:00:38;;;;;;;1.45;0.50;;;20.00;74.40;;;;;;5050764;28;20113;-82
2022/05/26 08:03:04;;;;;;;0.88;0.30;;;20.00;74.50;;;;;;5050520;28;20032;-83
2022/05/26 08:05:29;;;;;;;1.30;0.50;;;20.10;74.20;;;;;;5050053;28;20119;-83
2022/05/26 08:07:55;;;;;;;1.20;0.40;;;20.10;75.10;;;;;;5050033;28;20409;-82
2022/05/26 08:10:20;;;;;;;1.67;0.40;;;20.20;74.40;;;;;;5052269;28;20021;-83
2022/05/26 08:12:46;;;;;;;3.53;0.57;;;20.20;74.40;;;;;;5058991;28;20020;-81
2022/05/26 08:15:12;;;;;;;1.58;0.40;;;20.30;74.00;;;;;;5063044;28;20027;-83
2022/05/26 08:17:38;;;;;;;0.63;0.40;;;20.30;74.40;;;;;;5057684;28;20420;-84
2022/05/26 08:20:05;;;;;;;0.98;0.47;;;20.40;75.30;;;;;;5051869;28;20025;-84
2022/05/26 08:22:31;;;;;;;0.85;0.43;;;20.50;74.30;;;;;;5051007;28;20082;-81
2022/05/26 08:24:58;;;;;;;0.57;0.30;;;20.50;73.30;;;;;;5050409;28;20424;-82
2022/05/26 08:27:24;;;;;;;1.20;0.40;;;20.70;73.70;;;;;;5049021;28;20052;-82
2022/05/26 08:29:51;;;;;;;0.88;0.40;;;20.60;74.60;;;;;;5049199;28;20104;-83
2022/05/26 08:32:18;;;;;;;4.20;0.60;;;20.60;74.20;;;;;;5050198;28;20036;-84
2022/05/26 08:34:44;;;;;;;1.35;0.30;;;20.70;75.30;;;;;;5049134;28;20032;-84
2022/05/26 08:37:18;;;;;;;1.80;0.47;;;20.80;73.70;;;;;;5050163;28;20029;-84
2022/05/26 08:39:45;;;;;;;2.10;0.50;;;20.90;73.10;;;;;;5050785;28;20452;-83
2022/05/26 08:42:31;;;;;;;3.03;0.60;;;21.00;73.90;;;;;;5049991;28;20079;-84
2022/05/26 08:45:05;;;;;;;1.42;0.50;;;21.10;72.40;;;;;;5048706;28;20029;-82
2022/05/26 08:47:35;;;;;;;3.70;0.40;;;21.00;73.50;;;;;;5048589;28;20043;-83
2022/05/26 08:50:11;;;;;;;0.43;0.35;;;21.20;72.90;;;;;;5052367;28;20771;-83
2022/05/26 08:52:45;;;;;;;0.65;0.35;;;21.40;72.70;;;;;;5053916;28;20027;-82
2022/05/26 08:55:15;;;;;;;0.60;0.30;;;21.50;72.10;;;;;;5053990;28;20111;-82
2022/05/26 08:57:46;;;;;;;1.10;0.40;;;21.40;71.00;;;;;;5053707;28;20143;-84
2022/05/26 09:00:15;;;;;;;0.43;0.30;;;21.30;71.60;;;;;;5052462;28;20396;-83
2022/05/26 09:02:41;;;;;;;1.95;0.40;;;21.00;72.40;;;;;;5053407;28;20036;-82
2022/05/26 09:05:14;;;;;;;1.50;0.50;;;20.90;73.70;;;;;;5052437;28;20029;-83
2022/05/26 09:13:38;;;;;;;1.67;0.73;;;20.90;73.00;;;;;;5054034;28;20080;-83
2022/05/26 09:16:07;;;;;;;1.08;0.40;;;21.00;73.40;;;;;;5051758;28;20425;-84
2022/05/26 09:18:33;;;;;;;0.93;0.43;;;21.00;72.50;;;;;;5053685;28;20090;-84
2022/05/26 09:21:23;;;;;;;2.70;0.40;;;21.00;73.70;;;;;;5052058;28;20091;-83
2022/05/26 09:23:50;;;;;;;1.15;0.40;;;21.10;72.70;;;;;;5053747;28;20033;-83
2022/05/26 09:26:18;;;;;;;1.73;0.98;;;21.20;72.50;;;;;;5052076;28;20033;-83
2022/05/26 09:28:49;;;;;;;3.80;0.40;;;21.20;74.00;;;;;;5053341;28;20032;-81
2022/05/26 09:31:23;;;;;;;1.00;0.68;;;21.20;72.80;;;;;;5053667;28;20048;-82
2022/05/26 09:34:00;;;;;;;0.95;0.40;;;21.30;72.60;;;;;;5052126;28;20029;-81
2022/05/26 09:36:36;;;;;;;0.70;0.43;;;21.40;73.20;;;;;;5054659;28;20033;-82
2022/05/26 09:39:03;;;;;;;9.15;0.68;;;21.60;73.00;;;;;;5053587;28;20052;-82
2022/05/26 09:41:36;;;;;;;1.02;0.40;;;21.60;72.20;;;;;;5052998;28;20044;-80
2022/05/26 09:44:02;;;;;;;4.15;0.63;;;21.50;72.30;;;;;;5051818;28;20064;-85
2022/05/26 09:46:28;;;;;;;1.98;0.60;;;21.40;74.00;;;;;;5052538;28;20477;-81
2022/05/26 09:49:00;;;;;;;0.90;0.40;;;21.30;73.10;;;;;;5051703;28;20116;-84
2022/05/26 09:51:33;;;;;;;2.13;1.55;;;21.10;73.20;;;;;;5051496;28;20094;-83
2022/05/26 09:54:19;;;;;;;4.55;0.55;;;21.10;73.30;;;;;;5053111;28;20040;-83
2022/05/26 09:56:45;;;;;;;1.25;0.50;;;21.00;74.20;;;;;;5052383;28;20482;-81
2022/05/26 09:59:30;;;;;;;2.20;0.98;;;21.00;74.40;;;;;;5052983;28;20103;-81
2022/05/26 10:02:10;;;;;;;2.20;0.52;;;20.90;73.70;;;;;;5050153;28;20043;-82
2022/05/26 10:05:07;;;;;;;1.85;0.70;;;20.80;74.30;;;;;;5052822;28;20057;-84
2022/05/26 10:07:59;;;;;;;1.80;0.70;;;20.80;74.90;;;;;;5050896;28;20021;-84
2022/05/26 10:10:39;;;;;;;1.98;0.70;;;20.70;75.00;;;;;;5045175;28;20045;-85
2022/05/26 10:13:40;;;;;;;1.10;0.50;;;20.70;76.10;;;;;;5052778;28;20389;-83
2022/05/26 10:16:05;;;;;;;2.58;0.60;;;20.60;75.30;;;;;;5052179;28;20082;-83
2022/05/26 10:18:50;;;;;;;2.55;0.77;;;20.50;76.40;;;;;;5051517;28;20029;-84
2022/05/26 10:21:41;;;;;;;1.52;0.55;;;20.50;76.90;;;;;;5051740;28;20512;-82
2022/05/26 10:24:35;;;;;;;1.15;0.40;;;20.50;76.50;;;;;;5052835;28;20473;-83
2022/05/26 10:27:27;;;;;;;1.60;0.68;;;20.60;76.00;;;;;;5052017;28;20090;-82
2022/05/26 10:30:17;;;;;;;2.03;0.55;;;20.70;75.90;;;;;;5051238;28;20094;-83
2022/05/26 10:33:17;;;;;;;0.93;0.55;;;20.70;76.00;;;;;;5050443;28;20619;-82
2022/05/26 10:36:02;;;;;;;33.63;23.67;;;20.70;73.60;;;;;;5051918;28;20029;-83
2022/05/26 10:38:49;;;;;;;4.60;4.00;;;20.60;76.10;;;;;;5052716;28;20385;-83
2022/05/26 10:41:38;;;;;;;10.10;6.45;;;20.70;75.00;;;;;;5052024;28;20106;-83
2022/05/26 10:44:13;;;;;;;2.10;0.80;;;20.80;75.70;;;;;;5050450;28;20389;-85
2022/05/26 10:46:44;;;;;;;1.55;0.65;;;20.90;75.10;;;;;;5051393;28;20029;-85
2022/05/26 10:49:18;;;;;;;0.68;0.40;;;21.00;74.10;;;;;;5051885;28;20056;-84
2022/05/26 10:51:56;;;;;;;1.13;0.40;;;21.00;74.00;;;;;;5051811;28;20033;-84
2022/05/26 10:54:48;;;;;;;2.60;0.63;;;21.20;74.20;;;;;;5050876;28;20029;-84
2022/05/26 10:57:22;;;;;;;5.50;1.20;;;21.40;73.10;;;;;;5052462;28;20017;-84
2022/05/26 11:00:13;;;;;;;1.15;0.65;;;21.60;75.70;;;;;;5052654;28;20060;-84
2022/05/26 11:02:45;;;;;;;1.15;0.52;;;21.80;73.30;;;;;;5051603;28;20037;-84
2022/05/26 11:05:35;;;;;;;2.25;0.57;;;22.10;72.90;;;;;;5052612;28;20481;-84
2022/05/26 11:08:29;;;;;;;2.05;0.98;;;22.30;71.80;;;;;;5053251;28;20358;-83
2022/05/26 11:11:03;;;;;;;1.02;0.40;;;22.50;71.20;;;;;;5052290;28;20535;-85
2022/05/26 11:13:38;;;;;;;4.47;0.52;;;22.60;72.60;;;;;;5050716;28;20047;-83
2022/05/26 11:19:24;;;;;;;2.28;1.05;;;22.90;69.70;;;;;;5052458;28;20065;-84
2022/05/26 11:21:51;;;;;;;1.45;0.70;;;23.00;69.20;;;;;;5051732;28;20432;-82
2022/05/26 11:24:16;;;;;;;1.42;0.50;;;23.10;68.80;;;;;;5050833;28;20033;-82
2022/05/26 11:27:05;;;;;;;6.15;0.65;;;23.00;68.40;;;;;;5050709;28;20025;-85
2022/05/26 11:29:47;;;;;;;3.35;1.20;;;22.90;69.40;;;;;;5052902;28;20033;-83
2022/05/26 11:38:28;;;;;;;1.83;0.50;;;23.00;68.30;;;;;;5063082;28;20044;-83
2022/05/26 11:41:05;;;;;;;0.70;0.47;;;22.90;68.60;;;;;;5057492;28;20040;-84
2022/05/26 11:43:43;;;;;;;1.67;1.02;;;22.90;69.70;;;;;;5056798;28;20032;-83
2022/05/26 11:46:32;;;;;;;2.58;0.63;;;22.90;68.20;;;;;;5054442;28;20025;-83
2022/05/26 11:48:58;;;;;;;2.47;0.73;;;22.70;68.80;;;;;;5056830;28;20064;-85
2022/05/26 11:51:38;;;;;;;2.65;0.63;;;22.80;68.50;;;;;;5056080;28;20462;-84
2022/05/26 11:54:04;;;;;;;2.47;0.70;;;22.80;68.30;;;;;;5057716;28;20033;-84
2022/05/26 11:56:33;;;;;;;2.00;1.10;;;22.80;68.90;;;;;;5051528;28;20029;-85
2022/05/26 11:59:19;;;;;;;2.25;0.70;;;22.70;69.90;;;;;;5052693;28;20033;-82
2022/05/26 12:02:08;;;;;;;1.35;0.70;;;22.70;69.60;;;;;;5050662;28;20029;-85
2022/05/26 12:04:43;;;;;;;1.15;0.50;;;22.80;70.40;;;;;;5053231;28;20041;-84
2022/05/26 12:07:15;;;;;;;2.13;0.52;;;22.90;69.10;;;;;;5053066;28;20064;-84
2022/05/26 12:09:43;;;;;;;1.50;0.50;;;22.90;72.50;;;;;;5055616;28;20065;-82
2022/05/26 12:12:18;;;;;;;1.77;0.60;;;23.00;70.00;;;;;;5053174;28;20552;-82
2022/05/26 12:14:46;;;;;;;2.75;0.90;;;23.10;69.40;;;;;;5052349;28;20033;-82
2022/05/26 12:17:33;;;;;;;1.30;0.55;;;23.10;69.30;;;;;;5051989;28;20029;-84
2022/05/26 12:20:10;;;;;;;1.38;0.50;;;23.10;69.10;;;;;;5051185;28;20035;-86
2022/05/26 12:22:59;;;;;;;1.35;0.70;;;23.00;69.10;;;;;;5051148;28;20052;-83
2022/05/26 12:25:27;;;;;;;3.17;0.60;;;22.90;69.00;;;;;;5046974;28;20041;-85
2022/05/26 12:28:31;;;;;;;2.80;0.60;;;22.70;68.60;;;;;;5049331;28;20029;-84
2022/05/26 12:30:57;;;;;;;2.15;0.60;;;22.60;69.70;;;;;;5050190;28;20033;-81
2022/05/26 12:33:44;;;;;;;0.85;0.50;;;22.40;70.20;;;;;;5051986;28;20032;-82
2022/05/26 12:36:44;;;;;;;1.17;0.80;;;22.40;70.30;;;;;;5049328;28;20082;-81
2022/05/26 12:39:39;;;;;;;2.05;0.40;;;22.30;71.10;;;;;;5049516;28;20070;-81
2022/05/26 12:42:42;;;;;;;1.30;0.65;;;22.00;71.10;;;;;;5048631;28;20652;-82
2022/05/26 12:45:11;;;;;;;;;;;21.90;71.80;;;;;;5049176;28;20060;-82
2022/05/26 12:47:54;;;;;;;1.23;0.60;;;21.80;72.60;;;;;;5050430;28;19908;-83
2022/05/26 12:50:22;;;;;;;0.57;0.40;;;21.70;73.20;;;;;;5051174;28;20386;-82
2022/05/26 12:52:57;;;;;;;2.72;0.50;;;21.80;74.40;;;;;;5049561;28;20500;-83
2022/05/26 12:55:32;;;;;;;0.93;0.43;;;22.00;71.70;;;;;;5050408;28;20029;-82
2022/05/26 12:58:05;;;;;;;3.20;0.50;;;22.20;70.90;;;;;;5050460;28;20036;-83
2022/05/26 13:00:35;;;;;;;1.02;0.70;;;22.50;73.10;;;;;;5049532;28;20052;-85
2022/05/26 13:03:04;;;;;;;2.42;0.60;;;22.70;69.20;;;;;;5048836;28;20126;-84
2022/05/26 13:05:34;;;;;;;0.98;0.47;;;23.00;70.30;;;;;;5048754;28;20191;-85
2022/05/26 13:08:01;;;;;;;1.05;0.32;;;23.20;68.90;;;;;;5052243;28;20143;-82
2022/05/26 13:10:40;;;;;;;0.77;0.40;;;23.30;69.60;;;;;;5049266;28;20031;-82
2022/05/26 13:13:31;;;;;;;0.40;0.40;;;23.10;68.60;;;;;;5049843;28;20029;-82
2022/05/26 13:16:27;;;;;;;0.82;0.40;;;23.00;67.90;;;;;;5048206;28;20032;-82
2022/05/26 13:18:54;;;;;;;1.55;0.55;;;22.90;68.30;;;;;;5048463;28;20542;-85
2022/05/26 13:21:28;;;;;;;0.40;0.40;;;22.80;70.20;;;;;;5049602;28;20520;-82
2022/05/26 13:23:54;;;;;;;0.65;0.38;;;22.70;70.30;;;;;;5048526;28;20393;-84
2022/05/26 13:26:20;;;;;;;1.38;0.43;;;22.50;71.30;;;;;;5047965;28;20032;-83
2022/05/26 13:28:53;;;;;;;4.40;0.80;;;22.30;71.40;;;;;;5048545;28;20028;-82
2022/05/26 13:34:06;;;;;;;2.97;0.60;;;21.80;72.30;;;;;;5049598;28;20079;-81
2022/05/26 13:36:35;;;;;;;1.95;0.60;;;21.50;72.90;;;;;;5050532;28;20033;-83
2022/05/26 13:39:25;;;;;;;1.35;0.60;;;21.30;73.40;;;;;;5053329;28;20029;-83
2022/05/26 13:41:54;;;;;;;1.45;0.63;;;21.20;73.10;;;;;;5049761;28;20056;-82
2022/05/26 13:44:35;;;;;;;2.97;0.65;;;21.10;74.00;;;;;;5052045;28;20128;-83
2022/05/26 13:47:04;;;;;;;3.42;0.55;;;21.10;74.30;;;;;;5051483;28;20033;-83
2022/05/26 13:49:38;;;;;;;1.00;0.60;;;21.20;74.10;;;;;;5053779;28;20029;-83
2022/05/26 13:52:18;;;;;;;1.13;0.60;;;21.60;74.00;;;;;;5051721;28;20090;-82
2022/05/26 13:55:03;;;;;;;1.38;0.50;;;21.80;73.30;;;;;;5051742;28;20025;-83
2022/05/26 13:57:45;;;;;;;3.50;0.68;;;21.90;73.00;;;;;;5052691;28;20029;-83